sensor_id;sensor_type;location;lat;lon;timestamp;P1;durP1;ratioP1;P2;durP2;ratioP2
12660;SDS011;39039;51.802;5.710;2022-07-29T00:02:01;2.20;;;0.70;;
12660;SDS011;39039;51.802;5.710;2022-07-29T00:04:28;4.28;;;1.13;;
12660;SDS011;39039;51.802;5.710;2022-07-29T00:06:54;2.72;;;0.85;;
12660;SDS011;39039;51.802;5.710;2022-07-29T00:09:23;1.33;;;0.80;;
12660;SDS011;39039;51.802;5.710;2022-07-29T00:11:50;2.73;;;0.90;;
12660;SDS011;39039;51.802;5.710;2022-07-29T00:14:17;2.87;;;0.83;;
12660;SDS011;39039;51.802;5.710;2022-07-29T00:16:44;3.83;;;0.93;;
12660;SDS011;39039;51.802;5.710;2022-07-29T00:19:11;3.15;;;0.73;;
12660;SDS011;39039;51.802;5.710;2022-07-29T00:21:38;2.97;;;0.90;;
12660;SDS011;39039;51.802;5.710;2022-07-29T00:24:05;2.20;;;0.80;;
12660;SDS011;39039;51.802;5.710;2022-07-29T00:26:34;2.38;;;1.02;;
12660;SDS011;39039;51.802;5.710;2022-07-29T00:29:01;2.93;;;0.60;;
12660;SDS011;39039;51.802;5.710;2022-07-29T00:31:28;1.50;;;0.87;;
12660;SDS011;39039;51.802;5.710;2022-07-29T00:33:55;1.63;;;1.00;;
12660;SDS011;39039;51.802;5.710;2022-07-29T00:36:23;0.80;;;0.60;;
12660;SDS011;39039;51.802;5.710;2022-07-29T00:38:49;2.45;;;0.90;;
12660;SDS011;39039;51.802;5.710;2022-07-29T00:41:17;1.97;;;0.67;;
12660;SDS011;39039;51.802;5.710;2022-07-29T00:43:45;1.95;;;0.80;;
12660;SDS011;39039;51.802;5.710;2022-07-29T00:46:12;1.40;;;0.77;;
12660;SDS011;39039;51.802;5.710;2022-07-29T00:48:39;1.13;;;0.60;;
12660;SDS011;39039;51.802;5.710;2022-07-29T00:51:06;3.40;;;0.97;;
12660;SDS011;39039;51.802;5.710;2022-07-29T00:53:35;1.30;;;0.70;;
12660;SDS011;39039;51.802;5.710;2022-07-29T00:56:03;0.77;;;0.60;;
12660;SDS011;39039;51.802;5.710;2022-07-29T00:58:30;1.98;;;0.60;;
12660;SDS011;39039;51.802;5.710;2022-07-29T01:00:59;0.97;;;0.70;;
12660;SDS011;39039;51.802;5.710;2022-07-29T01:03:26;3.37;;;1.00;;
12660;SDS011;39039;51.802;5.710;2022-07-29T01:05:53;1.17;;;0.80;;
12660;SDS011;39039;51.802;5.710;2022-07-29T01:08:21;1.73;;;0.80;;
12660;SDS011;39039;51.802;5.710;2022-07-29T01:10:49;1.43;;;0.60;;
12660;SDS011;39039;51.802;5.710;2022-07-29T01:13:17;1.25;;;0.60;;
12660;SDS011;39039;51.802;5.710;2022-07-29T01:15:46;2.30;;;0.70;;
12660;SDS011;39039;51.802;5.710;2022-07-29T01:18:16;1.50;;;0.80;;
12660;SDS011;39039;51.802;5.710;2022-07-29T01:20:49;2.53;;;0.80;;
12660;SDS011;39039;51.802;5.710;2022-07-29T01:23:40;3.10;;;0.70;;
12660;SDS011;39039;51.802;5.710;2022-07-29T01:26:19;1.77;;;0.80;;
12660;SDS011;39039;51.802;5.710;2022-07-29T01:28:54;1.90;;;0.97;;
12660;SDS011;39039;51.802;5.710;2022-07-29T01:31:27;2.10;;;0.77;;
12660;SDS011;39039;51.802;5.710;2022-07-29T01:33:57;1.37;;;0.70;;
12660;SDS011;39039;51.802;5.710;2022-07-29T01:36:27;1.47;;;0.77;;
12660;SDS011;39039;51.802;5.710;2022-07-29T01:38:57;1.80;;;1.20;;
12660;SDS011;39039;51.802;5.710;2022-07-29T01:41:27;1.87;;;1.20;;
12660;SDS011;39039;51.802;5.710;2022-07-29T01:43:59;5.90;;;1.03;;
12660;SDS011;39039;51.802;5.710;2022-07-29T01:46:27;1.90;;;1.00;;
12660;SDS011;39039;51.802;5.710;2022-07-29T01:48:57;6.10;;;1.37;;
12660;SDS011;39039;51.802;5.710;2022-07-29T01:51:27;1.70;;;1.10;;
12660;SDS011;39039;51.802;5.710;2022-07-29T01:53:59;4.53;;;1.20;;
12660;SDS011;39039;51.802;5.710;2022-07-29T01:56:28;5.83;;;1.70;;
12660;SDS011;39039;51.802;5.710;2022-07-29T01:58:58;4.83;;;1.50;;
12660;SDS011;39039;51.802;5.710;2022-07-29T02:01:26;2.47;;;1.40;;
12660;SDS011;39039;51.802;5.710;2022-07-29T02:03:54;2.33;;;1.37;;
12660;SDS011;39039;51.802;5.710;2022-07-29T02:06:21;7.57;;;1.60;;
12660;SDS011;39039;51.802;5.710;2022-07-29T02:08:49;4.63;;;1.70;;
12660;SDS011;39039;51.802;5.710;2022-07-29T02:11:17;2.70;;;1.87;;
12660;SDS011;39039;51.802;5.710;2022-07-29T02:13:44;3.93;;;2.13;;
12660;SDS011;39039;51.802;5.710;2022-07-29T02:16:13;6.20;;;2.10;;
12660;SDS011;39039;51.802;5.710;2022-07-29T02:18:41;3.00;;;1.87;;
12660;SDS011;39039;51.802;5.710;2022-07-29T02:21:10;4.53;;;1.90;;
12660;SDS011;39039;51.802;5.710;2022-07-29T02:23:39;3.57;;;1.93;;
12660;SDS011;39039;51.802;5.710;2022-07-29T02:26:06;5.43;;;1.60;;
12660;SDS011;39039;51.802;5.710;2022-07-29T02:28:34;4.63;;;1.77;;
12660;SDS011;39039;51.802;5.710;2022-07-29T02:31:01;3.20;;;1.77;;
12660;SDS011;39039;51.802;5.710;2022-07-29T02:33:30;4.00;;;2.00;;
12660;SDS011;39039;51.802;5.710;2022-07-29T02:35:58;6.83;;;2.17;;
12660;SDS011;39039;51.802;5.710;2022-07-29T02:38:25;3.47;;;1.77;;
12660;SDS011;39039;51.802;5.710;2022-07-29T02:41:12;3.37;;;1.60;;
12660;SDS011;39039;51.802;5.710;2022-07-29T02:43:40;2.30;;;1.73;;
12660;SDS011;39039;51.802;5.710;2022-07-29T02:46:08;3.93;;;2.07;;
12660;SDS011;39039;51.802;5.710;2022-07-29T02:48:44;3.13;;;2.07;;
12660;SDS011;39039;51.802;5.710;2022-07-29T02:51:17;4.00;;;1.87;;
12660;SDS011;39039;51.802;5.710;2022-07-29T02:53:44;3.47;;;1.70;;
12660;SDS011;39039;51.802;5.710;2022-07-29T02:56:16;3.90;;;2.07;;
12660;SDS011;39039;51.802;5.710;2022-07-29T02:58:45;2.07;;;1.63;;
12660;SDS011;39039;51.802;5.710;2022-07-29T03:01:14;3.37;;;2.00;;
12660;SDS011;39039;51.802;5.710;2022-07-29T03:03:44;4.80;;;2.50;;
12660;SDS011;39039;51.802;5.710;2022-07-29T03:06:12;4.63;;;2.17;;
12660;SDS011;39039;51.802;5.710;2022-07-29T03:08:40;3.43;;;2.13;;
12660;SDS011;39039;51.802;5.710;2022-07-29T03:11:08;5.27;;;2.10;;
12660;SDS011;39039;51.802;5.710;2022-07-29T03:13:35;4.83;;;2.20;;
12660;SDS011;39039;51.802;5.710;2022-07-29T03:16:03;6.23;;;2.80;;
12660;SDS011;39039;51.802;5.710;2022-07-29T03:18:31;4.40;;;2.63;;
12660;SDS011;39039;51.802;5.710;2022-07-29T03:20:59;4.83;;;2.60;;
12660;SDS011;39039;51.802;5.710;2022-07-29T03:23:26;5.33;;;2.47;;
12660;SDS011;39039;51.802;5.710;2022-07-29T03:25:53;4.53;;;2.83;;
12660;SDS011;39039;51.802;5.710;2022-07-29T03:28:21;6.00;;;2.60;;
12660;SDS011;39039;51.802;5.710;2022-07-29T03:30:48;3.70;;;2.87;;
12660;SDS011;39039;51.802;5.710;2022-07-29T03:33:15;3.73;;;2.30;;
12660;SDS011;39039;51.802;5.710;2022-07-29T03:35:42;7.00;;;3.33;;
12660;SDS011;39039;51.802;5.710;2022-07-29T03:38:11;4.93;;;3.13;;
12660;SDS011;39039;51.802;5.710;2022-07-29T03:40:40;7.10;;;2.90;;
12660;SDS011;39039;51.802;5.710;2022-07-29T03:43:09;5.03;;;2.80;;
12660;SDS011;39039;51.802;5.710;2022-07-29T03:45:37;3.67;;;2.80;;
12660;SDS011;39039;51.802;5.710;2022-07-29T03:48:06;8.23;;;3.27;;
12660;SDS011;39039;51.802;5.710;2022-07-29T03:50:35;4.33;;;2.97;;
12660;SDS011;39039;51.802;5.710;2022-07-29T03:53:02;6.13;;;2.90;;
12660;SDS011;39039;51.802;5.710;2022-07-29T03:55:32;5.43;;;3.13;;
12660;SDS011;39039;51.802;5.710;2022-07-29T03:58:00;8.60;;;3.50;;
12660;SDS011;39039;51.802;5.710;2022-07-29T04:00:28;9.93;;;3.23;;
12660;SDS011;39039;51.802;5.710;2022-07-29T04:02:55;5.10;;;2.90;;
12660;SDS011;39039;51.802;5.710;2022-07-29T04:05:22;6.90;;;2.50;;
12660;SDS011;39039;51.802;5.710;2022-07-29T04:07:49;6.50;;;3.40;;
12660;SDS011;39039;51.802;5.710;2022-07-29T04:10:16;4.20;;;2.87;;
12660;SDS011;39039;51.802;5.710;2022-07-29T04:12:46;3.83;;;2.93;;
12660;SDS011;39039;51.802;5.710;2022-07-29T04:15:12;6.73;;;3.13;;
12660;SDS011;39039;51.802;5.710;2022-07-29T04:17:39;6.20;;;3.40;;
12660;SDS011;39039;51.802;5.710;2022-07-29T04:20:07;6.60;;;3.67;;
12660;SDS011;39039;51.802;5.710;2022-07-29T04:22:34;6.33;;;3.50;;
12660;SDS011;39039;51.802;5.710;2022-07-29T04:25:01;7.97;;;4.10;;
12660;SDS011;39039;51.802;5.710;2022-07-29T04:27:28;6.93;;;3.50;;
12660;SDS011;39039;51.802;5.710;2022-07-29T04:29:56;5.77;;;3.83;;
12660;SDS011;39039;51.802;5.710;2022-07-29T04:32:23;4.33;;;2.60;;
12660;SDS011;39039;51.802;5.710;2022-07-29T04:34:50;3.60;;;2.73;;
12660;SDS011;39039;51.802;5.710;2022-07-29T04:37:17;4.60;;;3.10;;
12660;SDS011;39039;51.802;5.710;2022-07-29T04:39:44;7.93;;;3.20;;
12660;SDS011;39039;51.802;5.710;2022-07-29T04:42:11;5.47;;;2.70;;
12660;SDS011;39039;51.802;5.710;2022-07-29T04:44:38;4.00;;;2.47;;
12660;SDS011;39039;51.802;5.710;2022-07-29T04:47:08;3.87;;;2.77;;
12660;SDS011;39039;51.802;5.710;2022-07-29T04:49:37;6.63;;;2.77;;
12660;SDS011;39039;51.802;5.710;2022-07-29T04:52:04;7.83;;;3.07;;
12660;SDS011;39039;51.802;5.710;2022-07-29T04:54:31;6.23;;;3.07;;
12660;SDS011;39039;51.802;5.710;2022-07-29T04:56:58;4.53;;;2.80;;
12660;SDS011;39039;51.802;5.710;2022-07-29T04:59:25;5.13;;;2.70;;
12660;SDS011;39039;51.802;5.710;2022-07-29T05:01:52;4.27;;;3.10;;
12660;SDS011;39039;51.802;5.710;2022-07-29T05:04:21;4.90;;;3.03;;
12660;SDS011;39039;51.802;5.710;2022-07-29T05:06:48;3.67;;;2.70;;
12660;SDS011;39039;51.802;5.710;2022-07-29T05:09:15;3.97;;;2.83;;
12660;SDS011;39039;51.802;5.710;2022-07-29T05:11:42;5.87;;;2.90;;
12660;SDS011;39039;51.802;5.710;2022-07-29T05:14:09;6.30;;;2.93;;
12660;SDS011;39039;51.802;5.710;2022-07-29T05:16:36;3.53;;;2.20;;
12660;SDS011;39039;51.802;5.710;2022-07-29T05:19:05;6.10;;;2.90;;
12660;SDS011;39039;51.802;5.710;2022-07-29T05:21:33;5.23;;;2.57;;
12660;SDS011;39039;51.802;5.710;2022-07-29T05:24:00;4.97;;;2.70;;
12660;SDS011;39039;51.802;5.710;2022-07-29T05:26:27;6.70;;;3.10;;
12660;SDS011;39039;51.802;5.710;2022-07-29T05:28:54;5.10;;;2.93;;
12660;SDS011;39039;51.802;5.710;2022-07-29T05:31:22;5.03;;;2.80;;
12660;SDS011;39039;51.802;5.710;2022-07-29T05:33:49;2.97;;;2.43;;
12660;SDS011;39039;51.802;5.710;2022-07-29T05:36:15;3.13;;;2.60;;
12660;SDS011;39039;51.802;5.710;2022-07-29T05:38:44;6.00;;;2.97;;
12660;SDS011;39039;51.802;5.710;2022-07-29T05:41:11;4.87;;;2.90;;
12660;SDS011;39039;51.802;5.710;2022-07-29T05:43:38;3.70;;;2.40;;
12660;SDS011;39039;51.802;5.710;2022-07-29T05:46:05;4.23;;;2.73;;
12660;SDS011;39039;51.802;5.710;2022-07-29T05:48:32;4.70;;;2.90;;
12660;SDS011;39039;51.802;5.710;2022-07-29T05:51:00;3.60;;;2.80;;
12660;SDS011;39039;51.802;5.710;2022-07-29T05:53:27;4.10;;;2.40;;
12660;SDS011;39039;51.802;5.710;2022-07-29T05:55:55;5.10;;;2.70;;
12660;SDS011;39039;51.802;5.710;2022-07-29T05:58:22;7.60;;;3.17;;
12660;SDS011;39039;51.802;5.710;2022-07-29T06:00:49;3.60;;;2.27;;
12660;SDS011;39039;51.802;5.710;2022-07-29T06:03:16;6.50;;;2.50;;
12660;SDS011;39039;51.802;5.710;2022-07-29T06:05:43;4.20;;;2.60;;
12660;SDS011;39039;51.802;5.710;2022-07-29T06:08:10;4.17;;;2.53;;
12660;SDS011;39039;51.802;5.710;2022-07-29T06:10:37;5.97;;;2.67;;
12660;SDS011;39039;51.802;5.710;2022-07-29T06:13:05;8.07;;;2.80;;
12660;SDS011;39039;51.802;5.710;2022-07-29T06:15:33;4.60;;;2.97;;
12660;SDS011;39039;51.802;5.710;2022-07-29T06:18:00;4.20;;;2.10;;
12660;SDS011;39039;51.802;5.710;2022-07-29T06:20:27;4.20;;;2.33;;
12660;SDS011;39039;51.802;5.710;2022-07-29T06:22:54;7.17;;;2.67;;
12660;SDS011;39039;51.802;5.710;2022-07-29T06:25:22;5.47;;;2.50;;
12660;SDS011;39039;51.802;5.710;2022-07-29T06:27:49;4.10;;;3.07;;
12660;SDS011;39039;51.802;5.710;2022-07-29T06:30:17;3.37;;;2.50;;
12660;SDS011;39039;51.802;5.710;2022-07-29T06:32:44;5.07;;;2.40;;
12660;SDS011;39039;51.802;5.710;2022-07-29T06:35:11;3.77;;;2.60;;
12660;SDS011;39039;51.802;5.710;2022-07-29T06:37:38;3.07;;;2.30;;
12660;SDS011;39039;51.802;5.710;2022-07-29T06:40:06;6.37;;;2.90;;
12660;SDS011;39039;51.802;5.710;2022-07-29T06:42:50;4.53;;;2.80;;
12660;SDS011;39039;51.802;5.710;2022-07-29T06:45:19;6.13;;;2.30;;
12660;SDS011;39039;51.802;5.710;2022-07-29T06:47:46;3.78;;;2.22;;
12660;SDS011;39039;51.802;5.710;2022-07-29T06:50:13;4.32;;;2.33;;
12660;SDS011;39039;51.802;5.710;2022-07-29T06:52:40;2.60;;;1.80;;
12660;SDS011;39039;51.802;5.710;2022-07-29T06:55:08;3.88;;;2.20;;
12660;SDS011;39039;51.802;5.710;2022-07-29T06:57:35;3.80;;;2.38;;
12660;SDS011;39039;51.802;5.710;2022-07-29T07:00:02;3.75;;;2.13;;
12660;SDS011;39039;51.802;5.710;2022-07-29T07:02:31;4.00;;;2.30;;
12660;SDS011;39039;51.802;5.710;2022-07-29T07:04:58;6.60;;;2.53;;
12660;SDS011;39039;51.802;5.710;2022-07-29T07:07:25;3.60;;;2.73;;
12660;SDS011;39039;51.802;5.710;2022-07-29T07:09:52;4.27;;;2.53;;
12660;SDS011;39039;51.802;5.710;2022-07-29T07:12:19;7.17;;;2.67;;
12660;SDS011;39039;51.802;5.710;2022-07-29T07:14:46;3.50;;;2.40;;
12660;SDS011;39039;51.802;5.710;2022-07-29T07:17:14;3.83;;;2.50;;
12660;SDS011;39039;51.802;5.710;2022-07-29T07:19:42;3.85;;;2.30;;
12660;SDS011;39039;51.802;5.710;2022-07-29T07:22:10;6.82;;;2.22;;
12660;SDS011;39039;51.802;5.710;2022-07-29T07:24:37;4.27;;;2.60;;
12660;SDS011;39039;51.802;5.710;2022-07-29T07:27:04;5.57;;;2.55;;
12660;SDS011;39039;51.802;5.710;2022-07-29T07:29:31;2.83;;;2.25;;
12660;SDS011;39039;51.802;5.710;2022-07-29T07:31:58;9.43;;;2.63;;
12660;SDS011;39039;51.802;5.710;2022-07-29T07:34:25;6.18;;;2.25;;
12660;SDS011;39039;51.802;5.710;2022-07-29T07:36:53;5.53;;;2.63;;
12660;SDS011;39039;51.802;5.710;2022-07-29T07:39:20;4.40;;;2.53;;
12660;SDS011;39039;51.802;5.710;2022-07-29T07:41:47;3.72;;;2.53;;
12660;SDS011;39039;51.802;5.710;2022-07-29T07:44:14;3.65;;;2.10;;
12660;SDS011;39039;51.802;5.710;2022-07-29T07:46:41;6.20;;;2.30;;
12660;SDS011;39039;51.802;5.710;2022-07-29T07:49:10;3.40;;;2.42;;
12660;SDS011;39039;51.802;5.710;2022-07-29T07:51:37;5.03;;;2.35;;
12660;SDS011;39039;51.802;5.710;2022-07-29T07:54:05;3.28;;;2.00;;
12660;SDS011;39039;51.802;5.710;2022-07-29T07:56:33;3.90;;;2.67;;
12660;SDS011;39039;51.802;5.710;2022-07-29T07:59:00;3.72;;;2.50;;
12660;SDS011;39039;51.802;5.710;2022-07-29T08:01:26;3.78;;;2.28;;
12660;SDS011;39039;51.802;5.710;2022-07-29T08:03:53;7.82;;;2.45;;
12660;SDS011;39039;51.802;5.710;2022-07-29T08:06:20;6.00;;;2.92;;
12660;SDS011;39039;51.802;5.710;2022-07-29T08:08:49;4.18;;;2.30;;
12660;SDS011;39039;51.802;5.710;2022-07-29T08:11:17;3.50;;;2.47;;
12660;SDS011;39039;51.802;5.710;2022-07-29T08:13:44;3.50;;;2.40;;
12660;SDS011;39039;51.802;5.710;2022-07-29T08:16:12;4.32;;;2.35;;
12660;SDS011;39039;51.802;5.710;2022-07-29T08:18:40;3.45;;;2.40;;
12660;SDS011;39039;51.802;5.710;2022-07-29T08:21:07;3.47;;;2.40;;
12660;SDS011;39039;51.802;5.710;2022-07-29T08:23:34;4.68;;;2.55;;
12660;SDS011;39039;51.802;5.710;2022-07-29T08:26:04;6.55;;;3.00;;
12660;SDS011;39039;51.802;5.710;2022-07-29T08:28:36;4.38;;;2.83;;
12660;SDS011;39039;51.802;5.710;2022-07-29T08:31:03;4.57;;;2.60;;
12660;SDS011;39039;51.802;5.710;2022-07-29T08:33:31;3.83;;;2.15;;
12660;SDS011;39039;51.802;5.710;2022-07-29T08:35:58;4.00;;;2.53;;
12660;SDS011;39039;51.802;5.710;2022-07-29T08:38:25;3.72;;;2.00;;
12660;SDS011;39039;51.802;5.710;2022-07-29T08:40:52;4.85;;;2.63;;
12660;SDS011;39039;51.802;5.710;2022-07-29T08:43:19;3.30;;;2.13;;
12660;SDS011;39039;51.802;5.710;2022-07-29T08:45:48;3.47;;;2.30;;
12660;SDS011;39039;51.802;5.710;2022-07-29T08:48:16;6.82;;;2.40;;
12660;SDS011;39039;51.802;5.710;2022-07-29T08:50:44;7.60;;;2.40;;
12660;SDS011;39039;51.802;5.710;2022-07-29T08:53:12;8.02;;;2.45;;
12660;SDS011;39039;51.802;5.710;2022-07-29T08:55:39;2.72;;;2.00;;
12660;SDS011;39039;51.802;5.710;2022-07-29T08:58:07;3.03;;;2.15;;
12660;SDS011;39039;51.802;5.710;2022-07-29T09:00:34;3.65;;;2.17;;
12660;SDS011;39039;51.802;5.710;2022-07-29T09:03:03;2.90;;;2.05;;
12660;SDS011;39039;51.802;5.710;2022-07-29T09:05:31;3.22;;;2.25;;
12660;SDS011;39039;51.802;5.710;2022-07-29T09:07:59;5.57;;;2.20;;
12660;SDS011;39039;51.802;5.710;2022-07-29T09:10:26;3.65;;;1.83;;
12660;SDS011;39039;51.802;5.710;2022-07-29T09:12:54;3.78;;;1.85;;
12660;SDS011;39039;51.802;5.710;2022-07-29T09:15:21;4.35;;;2.20;;
12660;SDS011;39039;51.802;5.710;2022-07-29T09:17:48;4.32;;;1.92;;
12660;SDS011;39039;51.802;5.710;2022-07-29T09:20:18;2.85;;;2.30;;
12660;SDS011;39039;51.802;5.710;2022-07-29T09:22:46;5.05;;;2.28;;
12660;SDS011;39039;51.802;5.710;2022-07-29T09:25:14;5.40;;;1.92;;
12660;SDS011;39039;51.802;5.710;2022-07-29T09:27:42;4.00;;;2.03;;
12660;SDS011;39039;51.802;5.710;2022-07-29T09:30:16;3.90;;;2.10;;
12660;SDS011;39039;51.802;5.710;2022-07-29T09:32:56;5.10;;;2.00;;
12660;SDS011;39039;51.802;5.710;2022-07-29T09:35:25;5.57;;;2.10;;
12660;SDS011;39039;51.802;5.710;2022-07-29T09:37:53;2.53;;;1.85;;
12660;SDS011;39039;51.802;5.710;2022-07-29T09:40:20;3.83;;;2.30;;
12660;SDS011;39039;51.802;5.710;2022-07-29T09:42:48;6.07;;;1.88;;
12660;SDS011;39039;51.802;5.710;2022-07-29T09:45:25;5.18;;;2.30;;
12660;SDS011;39039;51.802;5.710;2022-07-29T09:47:52;3.30;;;2.22;;
12660;SDS011;39039;51.802;5.710;2022-07-29T09:50:22;2.22;;;1.83;;
12660;SDS011;39039;51.802;5.710;2022-07-29T09:53:01;6.07;;;2.17;;
12660;SDS011;39039;51.802;5.710;2022-07-29T09:55:28;4.20;;;2.13;;
12660;SDS011;39039;51.802;5.710;2022-07-29T09:57:58;3.85;;;2.10;;
12660;SDS011;39039;51.802;5.710;2022-07-29T10:00:41;4.07;;;2.72;;
12660;SDS011;39039;51.802;5.710;2022-07-29T10:03:09;4.28;;;2.03;;
12660;SDS011;39039;51.802;5.710;2022-07-29T10:05:36;7.85;;;2.10;;
12660;SDS011;39039;51.802;5.710;2022-07-29T10:08:05;3.67;;;2.28;;
12660;SDS011;39039;51.802;5.710;2022-07-29T10:10:34;2.65;;;1.77;;
12660;SDS011;39039;51.802;5.710;2022-07-29T10:13:02;3.60;;;2.20;;
12660;SDS011;39039;51.802;5.710;2022-07-29T10:15:30;5.25;;;2.35;;
12660;SDS011;39039;51.802;5.710;2022-07-29T10:17:58;4.55;;;1.92;;
12660;SDS011;39039;51.802;5.710;2022-07-29T10:20:26;4.03;;;1.70;;
12660;SDS011;39039;51.802;5.710;2022-07-29T10:22:54;3.22;;;1.73;;
12660;SDS011;39039;51.802;5.710;2022-07-29T10:25:23;5.38;;;2.10;;
12660;SDS011;39039;51.802;5.710;2022-07-29T10:27:50;3.15;;;1.88;;
12660;SDS011;39039;51.802;5.710;2022-07-29T10:30:18;2.40;;;1.70;;
12660;SDS011;39039;51.802;5.710;2022-07-29T10:32:58;4.32;;;2.50;;
12660;SDS011;39039;51.802;5.710;2022-07-29T10:35:35;4.75;;;2.13;;
12660;SDS011;39039;51.802;5.710;2022-07-29T10:40:54;3.97;;;1.90;;
12660;SDS011;39039;51.802;5.710;2022-07-29T10:43:42;2.25;;;1.60;;
12660;SDS011;39039;51.802;5.710;2022-07-29T10:46:10;2.63;;;1.38;;
12660;SDS011;39039;51.802;5.710;2022-07-29T10:51:20;4.53;;;1.77;;
12660;SDS011;39039;51.802;5.710;2022-07-29T10:53:48;1.50;;;1.30;;
12660;SDS011;39039;51.802;5.710;2022-07-29T10:56:26;5.43;;;1.52;;
12660;SDS011;39039;51.802;5.710;2022-07-29T11:01:39;2.15;;;1.48;;
12660;SDS011;39039;51.802;5.710;2022-07-29T11:04:06;5.68;;;2.13;;
12660;SDS011;39039;51.802;5.710;2022-07-29T11:09:15;4.13;;;1.30;;
12660;SDS011;39039;51.802;5.710;2022-07-29T11:11:44;2.28;;;1.60;;
12660;SDS011;39039;51.802;5.710;2022-07-29T11:14:11;2.58;;;1.50;;
12660;SDS011;39039;51.802;5.710;2022-07-29T11:19:24;4.03;;;1.38;;
12660;SDS011;39039;51.802;5.710;2022-07-29T11:21:51;1.90;;;1.40;;
12660;SDS011;39039;51.802;5.710;2022-07-29T11:24:19;2.20;;;1.30;;
12660;SDS011;39039;51.802;5.710;2022-07-29T11:29:32;3.55;;;1.92;;
12660;SDS011;39039;51.802;5.710;2022-07-29T11:32:07;4.63;;;1.83;;
12660;SDS011;39039;51.802;5.710;2022-07-29T11:34:35;4.70;;;1.85;;
12660;SDS011;39039;51.802;5.710;2022-07-29T11:37:15;2.88;;;1.67;;
12660;SDS011;39039;51.802;5.710;2022-07-29T11:39:43;1.92;;;1.13;;
12660;SDS011;39039;51.802;5.710;2022-07-29T11:44:59;1.65;;;1.17;;
12660;SDS011;39039;51.802;5.710;2022-07-29T11:47:27;1.10;;;0.80;;
12660;SDS011;39039;51.802;5.710;2022-07-29T11:49:55;2.83;;;1.30;;
12660;SDS011;39039;51.802;5.710;2022-07-29T11:52:23;3.10;;;1.08;;
12660;SDS011;39039;51.802;5.710;2022-07-29T11:54:58;2.03;;;1.02;;
12660;SDS011;39039;51.802;5.710;2022-07-29T11:57:28;1.80;;;0.70;;
12660;SDS011;39039;51.802;5.710;2022-07-29T11:59:55;3.38;;;1.08;;
12660;SDS011;39039;51.802;5.710;2022-07-29T12:02:25;3.08;;;1.20;;
12660;SDS011;39039;51.802;5.710;2022-07-29T12:05:04;3.85;;;1.38;;
12660;SDS011;39039;51.802;5.710;2022-07-29T12:07:32;2.47;;;1.60;;
12660;SDS011;39039;51.802;5.710;2022-07-29T12:09:59;3.90;;;1.50;;
12660;SDS011;39039;51.802;5.710;2022-07-29T12:12:27;3.85;;;1.80;;
12660;SDS011;39039;51.802;5.710;2022-07-29T12:14:54;2.45;;;1.63;;
12660;SDS011;39039;51.802;5.710;2022-07-29T12:17:29;2.20;;;1.40;;
12660;SDS011;39039;51.802;5.710;2022-07-29T12:19:57;5.10;;;1.65;;
12660;SDS011;39039;51.802;5.710;2022-07-29T12:22:25;2.08;;;1.30;;
12660;SDS011;39039;51.802;5.710;2022-07-29T12:24:52;6.45;;;1.45;;
12660;SDS011;39039;51.802;5.710;2022-07-29T12:27:19;2.03;;;1.17;;
12660;SDS011;39039;51.802;5.710;2022-07-29T12:29:54;1.80;;;1.20;;
12660;SDS011;39039;51.802;5.710;2022-07-29T12:32:22;3.53;;;1.60;;
12660;SDS011;39039;51.802;5.710;2022-07-29T12:34:51;1.50;;;1.08;;
12660;SDS011;39039;51.802;5.710;2022-07-29T12:37:18;3.83;;;1.50;;
12660;SDS011;39039;51.802;5.710;2022-07-29T12:39:45;4.13;;;1.50;;
12660;SDS011;39039;51.802;5.710;2022-07-29T12:42:12;3.70;;;1.42;;
12660;SDS011;39039;51.802;5.710;2022-07-29T12:44:43;2.97;;;1.35;;
12660;SDS011;39039;51.802;5.710;2022-07-29T12:47:10;3.70;;;1.25;;
12660;SDS011;39039;51.802;5.710;2022-07-29T12:49:37;5.13;;;1.50;;
12660;SDS011;39039;51.802;5.710;2022-07-29T12:54:47;1.70;;;1.20;;
12660;SDS011;39039;51.802;5.710;2022-07-29T12:57:14;1.60;;;1.02;;
12660;SDS011;39039;51.802;5.710;2022-07-29T12:59:41;3.17;;;0.90;;
12660;SDS011;39039;51.802;5.710;2022-07-29T13:02:19;3.05;;;1.13;;
12660;SDS011;39039;51.802;5.710;2022-07-29T13:04:54;2.92;;;1.33;;
12660;SDS011;39039;51.802;5.710;2022-07-29T13:07:23;1.75;;;0.90;;
12660;SDS011;39039;51.802;5.710;2022-07-29T13:09:53;3.25;;;0.85;;
12660;SDS011;39039;51.802;5.710;2022-07-29T13:12:20;1.73;;;1.00;;
12660;SDS011;39039;51.802;5.710;2022-07-29T13:14:48;3.10;;;1.10;;
12660;SDS011;39039;51.802;5.710;2022-07-29T13:17:15;4.05;;;1.40;;
12660;SDS011;39039;51.802;5.710;2022-07-29T13:19:43;3.80;;;0.95;;
12660;SDS011;39039;51.802;5.710;2022-07-29T13:22:11;2.53;;;1.15;;
12660;SDS011;39039;51.802;5.710;2022-07-29T13:24:45;1.77;;;0.77;;
12660;SDS011;39039;51.802;5.710;2022-07-29T13:27:14;1.02;;;0.75;;
12660;SDS011;39039;51.802;5.710;2022-07-29T13:29:42;3.13;;;0.77;;
12660;SDS011;39039;51.802;5.710;2022-07-29T13:32:09;2.22;;;0.60;;
12660;SDS011;39039;51.802;5.710;2022-07-29T13:34:36;3.38;;;1.52;;
12660;SDS011;39039;51.802;5.710;2022-07-29T13:37:03;6.60;;;1.20;;
12660;SDS011;39039;51.802;5.710;2022-07-29T13:39:30;2.67;;;0.80;;
12660;SDS011;39039;51.802;5.710;2022-07-29T13:41:57;4.47;;;1.00;;
12660;SDS011;39039;51.802;5.710;2022-07-29T13:44:26;3.38;;;1.10;;
12660;SDS011;39039;51.802;5.710;2022-07-29T13:46:53;3.05;;;1.08;;
12660;SDS011;39039;51.802;5.710;2022-07-29T13:49:20;3.00;;;1.63;;
12660;SDS011;39039;51.802;5.710;2022-07-29T13:51:48;2.17;;;0.88;;
12660;SDS011;39039;51.802;5.710;2022-07-29T13:54:15;2.28;;;0.93;;
12660;SDS011;39039;51.802;5.710;2022-07-29T13:56:42;1.23;;;0.85;;
12660;SDS011;39039;51.802;5.710;2022-07-29T13:59:09;1.83;;;0.82;;
12660;SDS011;39039;51.802;5.710;2022-07-29T14:01:38;2.50;;;0.77;;
12660;SDS011;39039;51.802;5.710;2022-07-29T14:04:06;2.20;;;0.95;;
12660;SDS011;39039;51.802;5.710;2022-07-29T14:06:33;2.85;;;1.02;;
12660;SDS011;39039;51.802;5.710;2022-07-29T14:09:00;2.10;;;0.80;;
12660;SDS011;39039;51.802;5.710;2022-07-29T14:11:27;1.35;;;0.82;;
12660;SDS011;39039;51.802;5.710;2022-07-29T14:13:54;1.90;;;1.08;;
12660;SDS011;39039;51.802;5.710;2022-07-29T14:16:21;1.13;;;0.82;;
12660;SDS011;39039;51.802;5.710;2022-07-29T14:18:50;2.60;;;0.90;;
12660;SDS011;39039;51.802;5.710;2022-07-29T14:21:17;3.42;;;1.00;;
12660;SDS011;39039;51.802;5.710;2022-07-29T14:23:44;1.95;;;1.15;;
12660;SDS011;39039;51.802;5.710;2022-07-29T14:26:11;1.52;;;1.02;;
12660;SDS011;39039;51.802;5.710;2022-07-29T14:28:38;1.30;;;1.10;;
12660;SDS011;39039;51.802;5.710;2022-07-29T14:31:05;1.85;;;0.95;;
12660;SDS011;39039;51.802;5.710;2022-07-29T14:33:32;2.10;;;1.10;;
12660;SDS011;39039;51.802;5.710;2022-07-29T14:36:00;2.35;;;1.20;;
12660;SDS011;39039;51.802;5.710;2022-07-29T14:38:28;2.58;;;1.95;;
12660;SDS011;39039;51.802;5.710;2022-07-29T14:40:55;3.47;;;1.10;;
12660;SDS011;39039;51.802;5.710;2022-07-29T14:43:22;7.18;;;1.30;;
12660;SDS011;39039;51.802;5.710;2022-07-29T14:45:49;3.08;;;1.10;;
12660;SDS011;39039;51.802;5.710;2022-07-29T14:48:16;4.18;;;1.10;;
12660;SDS011;39039;51.802;5.710;2022-07-29T14:50:43;1.73;;;1.05;;
12660;SDS011;39039;51.802;5.710;2022-07-29T14:53:12;3.25;;;1.40;;
12660;SDS011;39039;51.802;5.710;2022-07-29T14:55:39;4.43;;;1.30;;
12660;SDS011;39039;51.802;5.710;2022-07-29T14:58:07;2.30;;;1.05;;
12660;SDS011;39039;51.802;5.710;2022-07-29T15:00:34;2.03;;;1.23;;
12660;SDS011;39039;51.802;5.710;2022-07-29T15:03:18;4.97;;;1.02;;
12660;SDS011;39039;51.802;5.710;2022-07-29T15:05:45;3.25;;;1.00;;
12660;SDS011;39039;51.802;5.710;2022-07-29T15:08:13;2.92;;;1.52;;
12660;SDS011;39039;51.802;5.710;2022-07-29T15:10:40;2.03;;;1.20;;
12660;SDS011;39039;51.802;5.710;2022-07-29T15:13:07;4.88;;;1.10;;
12660;SDS011;39039;51.802;5.710;2022-07-29T15:15:35;2.38;;;1.05;;
12660;SDS011;39039;51.802;5.710;2022-07-29T15:18:03;3.13;;;1.05;;